Time;durP1;ratioP1;P1;durP2;ratioP2;P2;SDS_P1;SDS_P2;PMS_P1;PMS_P2;Temp;Humidity;BMP_temperature;BMP_pressure;BME280_temperature;BME280_humidity;BME280_pressure;Samples;Min_cycle;Max_cycle;Signal;HPM_P1;HPM_P2
2022/10/16 00:01:27;;;;;;;1.38;0.70;;;12.40;99.90;;;;;;5022120;28;20037;-71
2022/10/16 00:03:53;;;;;;;1.27;0.70;;;12.40;99.90;;;;;;5021701;28;20372;-71
2022/10/16 00:06:20;;;;;;;4.13;0.65;;;12.40;99.90;;;;;;5024146;28;20538;-71
2022/10/16 00:08:47;;;;;;;2.35;0.80;;;12.40;99.90;;;;;;5021438;28;20081;-71
2022/10/16 00:11:14;;;;;;;1.55;0.63;;;12.40;99.90;;;;;;5023663;28;20049;-71
2022/10/16 00:13:42;;;;;;;2.08;0.63;;;12.40;99.90;;;;;;5021742;28;20048;-71
2022/10/16 00:16:09;;;;;;;1.45;0.55;;;12.50;99.90;;;;;;5021613;28;20064;-71
2022/10/16 00:18:35;;;;;;;0.50;0.30;;;12.50;99.90;;;;;;5000919;28;20048;-71
2022/10/16 00:21:22;;;;;;;1.75;0.55;;;12.50;99.90;;;;;;5024089;28;20254;-71
2022/10/16 00:24:04;;;;;;;1.55;0.57;;;12.40;99.90;;;;;;5022181;28;20084;-71
2022/10/16 00:26:31;;;;;;;1.58;0.70;;;12.50;99.90;;;;;;5023335;28;20907;-71
2022/10/16 00:28:57;;;;;;;1.67;0.60;;;12.50;99.90;;;;;;5022222;28;20033;-71
2022/10/16 00:31:24;;;;;;;0.82;0.40;;;12.50;99.90;;;;;;5020588;28;20505;-71
2022/10/16 00:33:50;;;;;;;0.80;0.55;;;12.50;99.90;;;;;;5023163;28;20033;-71
2022/10/16 00:36:19;;;;;;;5.13;1.40;;;12.50;99.90;;;;;;5023375;28;20045;-71
2022/10/16 00:38:45;;;;;;;1.25;0.47;;;12.50;99.90;;;;;;5022555;28;20041;-71
2022/10/16 00:41:14;;;;;;;1.08;0.63;;;12.50;99.90;;;;;;5006718;28;20541;-71
2022/10/16 00:43:46;;;;;;;1.35;0.50;;;12.50;99.90;;;;;;5020925;28;20051;-71
2022/10/16 00:46:19;;;;;;;1.38;0.63;;;12.40;99.90;;;;;;5002318;28;20769;-71
2022/10/16 00:49:03;;;;;;;1.77;0.77;;;12.50;99.90;;;;;;5019773;28;20029;-71
2022/10/16 00:51:53;;;;;;;1.42;0.73;;;12.50;99.90;;;;;;5024133;28;20099;-71
2022/10/16 00:54:27;;;;;;;1.05;0.55;;;12.40;99.90;;;;;;5022201;28;20049;-71
2022/10/16 00:56:55;;;;;;;0.63;0.45;;;12.40;99.90;;;;;;5022715;28;20049;-71
2022/10/16 00:59:25;;;;;;;2.22;0.77;;;12.40;99.90;;;;;;5032603;28;20148;-71
2022/10/16 01:01:51;;;;;;;2.38;0.77;;;12.40;99.90;;;;;;5020691;28;20801;-71
2022/10/16 01:04:17;;;;;;;1.40;0.40;;;12.40;99.90;;;;;;5020686;28;20049;-71
2022/10/16 01:07:06;;;;;;;2.03;0.80;;;12.40;99.90;;;;;;5024381;28;20548;-71
2022/10/16 01:09:41;;;;;;;0.93;0.32;;;12.40;99.90;;;;;;5018737;28;20053;-71
2022/10/16 01:12:13;;;;;;;2.08;0.90;;;12.40;99.90;;;;;;5014231;28;20501;-71
2022/10/16 01:14:54;;;;;;;1.80;0.70;;;12.40;99.90;;;;;;5001989;28;20505;-71
2022/10/16 01:17:36;;;;;;;2.10;0.63;;;12.40;99.90;;;;;;5021809;28;20045;-71
2022/10/16 01:20:20;;;;;;;0.77;0.47;;;12.40;99.90;;;;;;5020861;28;20431;-71
2022/10/16 01:23:27;;;;;;;5.82;0.95;;;12.40;99.90;;;;;;5021768;28;20565;-71
2022/10/16 01:26:28;;;;;;;1.13;0.60;;;12.40;99.90;;;;;;5021385;28;20041;-71
2022/10/16 01:28:55;;;;;;;1.08;0.52;;;12.50;99.90;;;;;;5020537;28;20499;-71
2022/10/16 01:31:25;;;;;;;3.70;0.80;;;12.40;99.90;;;;;;5012534;28;20519;-71
2022/10/16 01:33:58;;;;;;;1.17;0.65;;;12.50;99.90;;;;;;5005731;28;20045;-71
2022/10/16 01:36:36;;;;;;;0.73;0.30;;;12.50;99.90;;;;;;5020916;28;20042;-71
2022/10/16 01:39:03;;;;;;;2.85;0.77;;;12.50;99.90;;;;;;5019959;28;20079;-71
2022/10/16 01:41:35;;;;;;;1.50;0.70;;;12.50;99.90;;;;;;5018356;28;20041;-71
2022/10/16 01:44:03;;;;;;;1.42;0.52;;;12.50;99.90;;;;;;5019007;28;20045;-71
2022/10/16 01:46:31;;;;;;;2.28;0.77;;;12.50;99.90;;;;;;5021319;28;20874;-71
2022/10/16 01:48:59;;;;;;;1.50;0.82;;;12.50;99.90;;;;;;5025552;28;20167;-71
2022/10/16 01:51:26;;;;;;;1.65;0.65;;;12.50;99.90;;;;;;5028323;28;20092;-71
2022/10/16 01:53:58;;;;;;;1.95;0.73;;;12.50;99.90;;;;;;5024460;28;20510;-71
2022/10/16 01:56:25;;;;;;;1.10;0.60;;;12.50;99.90;;;;;;5021963;28;20520;-71
2022/10/16 01:59:01;;;;;;;1.67;0.57;;;12.50;99.90;;;;;;5020128;28;20114;-71
2022/10/16 02:01:30;;;;;;;1.10;0.70;;;12.50;99.90;;;;;;5025267;28;20037;-71
2022/10/16 02:03:59;;;;;;;3.25;0.77;;;12.60;99.90;;;;;;5029095;28;20064;-71
2022/10/16 02:06:25;;;;;;;1.23;0.77;;;12.60;99.90;;;;;;5027823;28;20056;-71
2022/10/16 02:08:51;;;;;;;0.93;0.50;;;12.60;99.90;;;;;;5027679;28;20506;-71
2022/10/16 02:11:16;;;;;;;2.08;0.70;;;12.60;99.90;;;;;;5028805;28;20040;-71
2022/10/16 02:13:47;;;;;;;2.60;0.60;;;12.60;99.90;;;;;;5026949;28;20037;-71
2022/10/16 02:16:14;;;;;;;1.42;0.50;;;12.50;99.90;;;;;;5023165;28;20928;-71
2022/10/16 02:18:42;;;;;;;1.25;0.68;;;12.60;99.90;;;;;;5009637;28;20041;-71
2022/10/16 02:21:25;;;;;;;2.10;0.95;;;12.50;99.90;;;;;;5027935;28;20550;-71
2022/10/16 02:24:24;;;;;;;1.60;0.70;;;12.50;99.90;;;;;;5029789;28;20051;-71
2022/10/16 02:27:09;;;;;;;1.05;0.45;;;12.50;99.90;;;;;;5027582;28;20063;-71
2022/10/16 02:29:40;;;;;;;1.38;0.57;;;12.50;99.90;;;;;;5025824;28;20040;-71
2022/10/16 02:32:08;;;;;;;1.20;0.65;;;12.50;99.90;;;;;;5022637;28;20074;-71
2022/10/16 02:34:35;;;;;;;1.00;0.60;;;12.50;99.90;;;;;;5029048;28;20499;-71
2022/10/16 02:37:05;;;;;;;2.10;0.93;;;12.50;99.90;;;;;;5008811;28;20045;-71
2022/10/16 02:39:31;;;;;;;1.23;0.65;;;12.50;99.90;;;;;;5022867;28;20038;-71
2022/10/16 02:41:56;;;;;;;0.88;0.50;;;12.60;99.90;;;;;;5026503;28;20045;-71
2022/10/16 02:44:22;;;;;;;1.40;0.80;;;12.60;99.90;;;;;;5028388;28;20044;-71
2022/10/16 02:46:48;;;;;;;2.47;0.85;;;12.60;99.90;;;;;;5027885;28;20099;-71
2022/10/16 02:49:13;;;;;;;1.52;0.73;;;12.60;99.90;;;;;;5028327;28;20045;-71
2022/10/16 02:51:39;;;;;;;2.60;1.17;;;12.60;99.90;;;;;;5045894;28;20589;-71
2022/10/16 02:54:04;;;;;;;1.35;0.95;;;12.60;99.90;;;;;;5025583;28;20053;-71
2022/10/16 02:56:30;;;;;;;1.73;0.93;;;12.60;99.90;;;;;;5010527;28;20069;-71
2022/10/16 02:58:56;;;;;;;3.75;0.73;;;12.60;99.90;;;;;;5023360;28;20053;-71
2022/10/16 03:01:23;;;;;;;2.45;1.05;;;12.60;99.90;;;;;;5022710;28;20069;-71
2022/10/16 03:03:49;;;;;;;1.30;0.80;;;12.70;99.90;;;;;;5022386;28;20414;-71
2022/10/16 03:06:15;;;;;;;1.75;0.80;;;12.70;99.90;;;;;;4997742;28;20037;-71
2022/10/16 03:08:40;;;;;;;0.70;0.47;;;12.60;99.90;;;;;;5020918;28;20058;-71
2022/10/16 03:11:06;;;;;;;7.20;0.98;;;12.60;99.90;;;;;;5022379;28;20096;-71
2022/10/16 03:13:31;;;;;;;1.98;0.75;;;12.70;99.90;;;;;;5023485;28;20041;-71
2022/10/16 03:15:57;;;;;;;1.27;0.65;;;12.70;99.90;;;;;;5022052;28;20499;-71
2022/10/16 03:18:23;;;;;;;2.55;0.80;;;12.70;99.90;;;;;;5022232;28;20041;-71
2022/10/16 03:20:48;;;;;;;1.77;0.65;;;12.70;99.90;;;;;;5023869;28;20410;-71
2022/10/16 03:23:14;;;;;;;1.30;0.70;;;12.70;99.90;;;;;;5025283;28;20057;-71
2022/10/16 03:25:40;;;;;;;1.90;0.85;;;12.70;99.90;;;;;;5023892;28;20080;-71
2022/10/16 03:28:05;;;;;;;1.13;0.70;;;12.70;99.90;;;;;;5001078;28;20049;-71
2022/10/16 03:30:31;;;;;;;0.80;0.60;;;12.70;99.90;;;;;;5009243;28;20071;-71
2022/10/16 03:32:57;;;;;;;3.15;0.60;;;12.70;99.90;;;;;;5023933;28;20457;-71
2022/10/16 03:35:23;;;;;;;1.52;0.77;;;12.70;99.90;;;;;;5022308;28;20041;-71
2022/10/16 03:37:49;;;;;;;1.90;0.68;;;12.70;99.90;;;;;;5021847;28;20124;-71
2022/10/16 03:40:16;;;;;;;1.10;0.65;;;12.70;99.90;;;;;;5018361;28;20068;-71
2022/10/16 03:42:45;;;;;;;1.20;0.70;;;12.70;99.90;;;;;;5021970;28;20076;-71
2022/10/16 03:45:11;;;;;;;1.30;0.73;;;12.70;99.90;;;;;;5013283;28;20033;-71
2022/10/16 03:47:37;;;;;;;1.23;0.50;;;12.80;99.90;;;;;;5021145;28;20787;-71
2022/10/16 03:50:03;;;;;;;1.02;0.40;;;12.70;99.90;;;;;;5018319;28;20041;-71
2022/10/16 03:52:29;;;;;;;1.65;0.70;;;12.80;99.90;;;;;;5023345;28;20116;-71
2022/10/16 03:54:55;;;;;;;2.60;0.73;;;12.80;99.90;;;;;;5022832;28;20128;-71
2022/10/16 03:57:21;;;;;;;2.88;0.90;;;12.80;99.90;;;;;;5023111;28;20411;-71
2022/10/16 03:59:46;;;;;;;1.98;0.50;;;12.80;99.90;;;;;;5022037;28;20057;-71
2022/10/16 04:02:12;;;;;;;1.50;0.60;;;12.70;99.90;;;;;;5006162;28;20037;-71
2022/10/16 04:04:38;;;;;;;1.83;0.68;;;12.70;99.90;;;;;;5024288;28;20092;-71
2022/10/16 04:07:04;;;;;;;1.17;0.65;;;12.70;99.90;;;;;;5017588;28;20546;-71
2022/10/16 04:09:29;;;;;;;3.50;0.95;;;12.70;99.90;;;;;;5021529;28;20060;-71
2022/10/16 04:11:55;;;;;;;1.33;0.80;;;12.70;99.90;;;;;;5017070;28;20099;-71
2022/10/16 04:14:20;;;;;;;1.42;0.75;;;12.70;99.90;;;;;;5021326;28;20453;-71
2022/10/16 04:16:46;;;;;;;1.92;0.77;;;12.60;99.90;;;;;;5021817;28;20048;-71
2022/10/16 04:19:12;;;;;;;1.30;0.65;;;12.60;99.90;;;;;;5021701;28;20037;-71
2022/10/16 04:21:37;;;;;;;1.20;0.70;;;12.60;99.90;;;;;;5019854;28;20135;-71
2022/10/16 04:24:03;;;;;;;2.17;0.80;;;12.60;99.90;;;;;;5022951;28;20041;-71
2022/10/16 04:26:29;;;;;;;0.80;0.60;;;12.60;99.90;;;;;;5019495;28;20041;-71
2022/10/16 04:28:55;;;;;;;2.13;1.05;;;12.60;99.90;;;;;;5021971;28;20447;-71
2022/10/16 04:31:21;;;;;;;4.47;1.08;;;12.60;99.90;;;;;;5018006;28;20095;-71
2022/10/16 04:33:46;;;;;;;2.08;1.05;;;12.60;99.90;;;;;;5023611;28;20238;-71
2022/10/16 04:36:12;;;;;;;1.23;0.80;;;12.60;99.90;;;;;;5005518;28;20132;-71
2022/10/16 04:38:39;;;;;;;1.90;0.90;;;12.60;99.90;;;;;;5005954;28;20033;-71
2022/10/16 04:41:07;;;;;;;2.03;0.93;;;12.60;99.90;;;;;;5022202;28;20041;-71
2022/10/16 04:43:33;;;;;;;2.28;1.10;;;12.60;99.90;;;;;;5020686;28;20103;-71
2022/10/16 04:45:59;;;;;;;0.73;0.40;;;12.60;99.90;;;;;;5020619;28;20037;-71
2022/10/16 04:48:25;;;;;;;1.55;0.50;;;12.50;99.90;;;;;;5022121;28;20041;-71
2022/10/16 04:50:50;;;;;;;1.15;0.60;;;12.50;99.90;;;;;;5021882;28;20064;-71
2022/10/16 04:53:16;;;;;;;2.58;1.00;;;12.50;99.90;;;;;;5023253;28;20060;-71
2022/10/16 04:55:43;;;;;;;1.30;1.00;;;12.50;99.90;;;;;;5006586;28;20655;-71
2022/10/16 04:58:09;;;;;;;1.90;0.88;;;12.50;99.90;;;;;;5019674;28;20037;-71
2022/10/16 05:00:35;;;;;;;2.42;1.10;;;12.50;99.90;;;;;;5003545;28;20654;-71
2022/10/16 05:03:01;;;;;;;1.52;0.65;;;12.50;99.90;;;;;;5021868;28;20033;-71
2022/10/16 05:05:27;;;;;;;1.60;0.82;;;12.50;99.90;;;;;;5020875;28;20029;-71
2022/10/16 05:07:53;;;;;;;3.30;0.90;;;12.60;99.90;;;;;;5021852;28;20057;-71
2022/10/16 05:10:19;;;;;;;2.20;1.13;;;12.60;99.90;;;;;;5022249;28;20044;-71
2022/10/16 05:12:45;;;;;;;2.60;1.10;;;12.60;99.90;;;;;;5022510;28;20487;-71
2022/10/16 05:15:11;;;;;;;9.65;1.13;;;12.60;99.90;;;;;;5020288;28;20418;-71
2022/10/16 05:17:36;;;;;;;2.22;0.93;;;12.60;99.90;;;;;;5021863;28;20037;-71
2022/10/16 05:20:03;;;;;;;2.20;0.90;;;12.60;99.90;;;;;;5027423;28;20061;-71
2022/10/16 05:22:28;;;;;;;1.83;0.88;;;12.60;99.90;;;;;;5021359;28;20049;-71
2022/10/16 05:24:54;;;;;;;1.58;0.90;;;12.60;99.90;;;;;;5022615;28;20042;-71
2022/10/16 05:27:20;;;;;;;1.38;0.60;;;12.60;99.90;;;;;;5020548;28;20526;-71
2022/10/16 05:29:46;;;;;;;2.00;0.85;;;12.60;99.90;;;;;;5020497;28;20533;-71
2022/10/16 05:32:13;;;;;;;1.77;0.90;;;12.60;99.90;;;;;;5022262;28;20034;-72
2022/10/16 05:34:39;;;;;;;2.22;0.90;;;12.60;99.90;;;;;;5004646;28;20129;-71
2022/10/16 05:37:05;;;;;;;3.47;0.80;;;12.60;99.90;;;;;;5021461;28;20444;-71
2022/10/16 05:39:30;;;;;;;1.65;0.90;;;12.60;99.90;;;;;;5020817;28;20049;-71
2022/10/16 05:41:56;;;;;;;1.40;1.08;;;12.60;99.90;;;;;;5020326;28;20083;-71
2022/10/16 05:44:22;;;;;;;2.40;1.17;;;12.60;99.90;;;;;;5022510;28;20471;-71
2022/10/16 05:46:47;;;;;;;1.75;0.85;;;12.60;99.90;;;;;;5021791;28;20044;-71
2022/10/16 05:49:13;;;;;;;5.70;0.80;;;12.60;99.90;;;;;;5020587;28;20060;-71
2022/10/16 05:51:38;;;;;;;1.90;0.93;;;12.70;99.90;;;;;;5019660;28;20125;-71
2022/10/16 05:54:04;;;;;;;3.50;0.95;;;12.70;99.90;;;;;;5019295;28;20033;-71
2022/10/16 05:56:29;;;;;;;2.58;0.95;;;12.70;99.90;;;;;;5018331;28;20060;-71
2022/10/16 05:58:55;;;;;;;2.08;1.27;;;12.70;99.90;;;;;;5021002;28;20076;-71
2022/10/16 06:01:23;;;;;;;4.20;0.88;;;12.60;99.90;;;;;;5023136;28;20056;-71
2022/10/16 06:03:50;;;;;;;1.67;1.00;;;12.70;99.90;;;;;;5021200;28;20053;-71
2022/10/16 06:06:27;;;;;;;3.00;0.70;;;12.70;99.90;;;;;;5023053;28;20047;-71
2022/10/16 06:08:54;;;;;;;2.45;0.95;;;12.70;99.90;;;;;;5021693;28;20115;-71
2022/10/16 06:11:23;;;;;;;2.03;0.75;;;12.70;99.90;;;;;;5019138;28;20156;-71
2022/10/16 06:13:54;;;;;;;1.15;0.55;;;12.70;99.90;;;;;;5020286;28;20041;-71
2022/10/16 06:16:20;;;;;;;1.08;0.60;;;12.70;99.90;;;;;;5020868;28;20043;-71
2022/10/16 06:18:46;;;;;;;2.97;0.80;;;12.70;99.90;;;;;;5018661;28;20077;-71
2022/10/16 06:21:16;;;;;;;1.42;0.85;;;12.70;99.90;;;;;;5023601;28;20037;-71
2022/10/16 06:23:42;;;;;;;2.28;1.15;;;12.70;99.90;;;;;;5000863;28;20044;-71
2022/10/16 06:26:09;;;;;;;1.92;1.00;;;12.70;99.90;;;;;;5018960;28;20042;-71
2022/10/16 06:28:35;;;;;;;2.00;1.00;;;12.70;99.90;;;;;;5019763;28;20034;-71
2022/10/16 06:31:02;;;;;;;2.40;0.80;;;12.70;99.90;;;;;;5018866;28;20037;-71
2022/10/16 06:33:28;;;;;;;2.95;0.90;;;12.70;99.90;;;;;;5019510;28;20041;-71
2022/10/16 06:35:53;;;;;;;2.88;0.73;;;12.70;99.90;;;;;;5022215;28;20048;-71
2022/10/16 06:38:19;;;;;;;1.95;1.10;;;12.70;99.90;;;;;;5006854;28;20041;-71
2022/10/16 06:40:45;;;;;;;1.23;0.60;;;12.70;99.90;;;;;;5026875;28;20080;-71
2022/10/16 06:43:10;;;;;;;3.72;1.10;;;12.70;99.90;;;;;;5006494;28;20131;-71
2022/10/16 06:45:36;;;;;;;1.92;1.00;;;12.70;99.90;;;;;;5023619;28;20151;-71
2022/10/16 06:48:01;;;;;;;0.85;0.55;;;12.70;99.90;;;;;;5025960;28;20681;-71
2022/10/16 06:50:27;;;;;;;1.23;0.70;;;12.80;99.90;;;;;;5024662;28;20403;-71
2022/10/16 06:52:52;;;;;;;1.63;0.60;;;12.70;99.90;;;;;;5023305;28;20045;-71
2022/10/16 06:55:18;;;;;;;1.48;1.00;;;12.80;99.90;;;;;;5021941;28;20034;-71
2022/10/16 06:57:46;;;;;;;6.60;0.82;;;12.80;99.90;;;;;;5024173;28;20061;-71
2022/10/16 07:00:12;;;;;;;1.27;0.60;;;12.80;99.90;;;;;;5025975;28;20044;-71
2022/10/16 07:02:37;;;;;;;1.33;0.70;;;12.80;99.90;;;;;;5037305;28;20029;-71
2022/10/16 07:05:03;;;;;;;0.88;0.57;;;12.80;99.90;;;;;;5021384;28;20619;-71
2022/10/16 07:07:29;;;;;;;1.25;0.50;;;12.80;99.90;;;;;;5024291;28;20056;-71
2022/10/16 07:09:55;;;;;;;2.25;0.80;;;12.90;99.90;;;;;;5022517;28;20053;-71
2022/10/16 07:12:20;;;;;;;1.30;0.95;;;12.90;99.90;;;;;;5020655;28;20049;-70
2022/10/16 07:14:46;;;;;;;3.03;0.90;;;12.90;99.90;;;;;;5023039;28;20041;-71
2022/10/16 07:17:11;;;;;;;1.08;0.70;;;12.90;99.90;;;;;;5023761;28;20041;-71
2022/10/16 07:19:37;;;;;;;1.40;0.80;;;12.90;99.90;;;;;;5036830;28;20095;-71
2022/10/16 07:22:03;;;;;;;2.85;0.68;;;12.90;99.90;;;;;;5025816;28;20494;-71
2022/10/16 07:24:28;;;;;;;4.75;0.77;;;13.00;99.90;;;;;;5022466;28;20407;-75
2022/10/16 07:26:54;;;;;;;1.42;0.60;;;13.00;99.90;;;;;;5004442;28;20515;-71
2022/10/16 07:29:21;;;;;;;2.38;0.60;;;13.00;99.90;;;;;;5003955;28;20071;-71
2022/10/16 07:31:48;;;;;;;1.95;0.60;;;13.00;99.90;;;;;;5023371;28;20033;-71
2022/10/16 07:34:16;;;;;;;1.05;0.50;;;13.00;99.90;;;;;;5016376;28;21965;-71
2022/10/16 07:36:42;;;;;;;0.93;0.50;;;13.00;99.90;;;;;;5023702;28;20049;-71
2022/10/16 07:39:08;;;;;;;2.55;0.70;;;13.10;99.90;;;;;;5007501;28;20037;-71
2022/10/16 07:41:36;;;;;;;1.35;0.60;;;13.10;99.90;;;;;;5021719;28;20123;-71
2022/10/16 07:44:03;;;;;;;1.90;0.70;;;13.20;99.90;;;;;;5018116;28;20045;-71
2022/10/16 07:46:29;;;;;;;2.00;0.90;;;13.20;99.90;;;;;;5023004;28;20128;-71
2022/10/16 07:48:54;;;;;;;1.05;0.60;;;13.20;99.90;;;;;;5021961;28;20175;-71
2022/10/16 07:51:24;;;;;;;3.42;0.77;;;13.20;99.90;;;;;;5019021;28;20033;-71
2022/10/16 07:53:51;;;;;;;0.93;0.52;;;13.20;99.90;;;;;;5020573;28;20053;-71
2022/10/16 07:56:18;;;;;;;1.33;0.57;;;13.30;99.90;;;;;;5005503;28;20557;-71
2022/10/16 07:58:44;;;;;;;1.77;0.55;;;13.30;99.90;;;;;;5018993;28;20038;-71
2022/10/16 08:01:13;;;;;;;2.10;0.57;;;13.30;99.90;;;;;;5004612;28;20119;-71
2022/10/16 08:03:41;;;;;;;3.55;0.70;;;13.30;99.90;;;;;;5004554;28;20041;-71
2022/10/16 08:06:07;;;;;;;0.65;0.35;;;13.30;99.90;;;;;;5036227;28;20184;-71
2022/10/16 08:08:32;;;;;;;1.33;0.43;;;13.40;99.90;;;;;;5022350;28;20045;-71
2022/10/16 08:10:58;;;;;;;1.88;0.63;;;13.40;99.90;;;;;;5019980;28;20152;-71
2022/10/16 08:13:26;;;;;;;3.90;0.50;;;13.30;99.90;;;;;;5020995;28;20049;-72
2022/10/16 08:15:53;;;;;;;2.47;0.40;;;13.40;99.90;;;;;;5015988;28;20102;-71
2022/10/16 08:18:18;;;;;;;5.45;0.70;;;13.50;99.90;;;;;;5020077;28;20041;-71
2022/10/16 08:20:44;;;;;;;1.27;0.40;;;13.50;99.90;;;;;;5021397;28;20049;-71
2022/10/16 08:23:12;;;;;;;1.45;0.50;;;13.50;99.90;;;;;;5016668;28;20087;-71
2022/10/16 08:25:38;;;;;;;0.80;0.38;;;13.50;99.90;;;;;;5017257;28;20041;-71
2022/10/16 08:28:09;;;;;;;0.40;0.20;;;13.50;99.90;;;;;;5016420;28;20043;-71
2022/10/16 08:30:35;;;;;;;0.70;0.30;;;13.60;99.90;;;;;;5017060;28;20506;-71
2022/10/16 08:33:01;;;;;;;2.65;0.47;;;13.60;99.90;;;;;;5001949;28;20091;-71
2022/10/16 08:35:27;;;;;;;1.95;0.43;;;13.60;99.90;;;;;;5017813;28;20045;-71
2022/10/16 08:37:52;;;;;;;3.25;0.55;;;13.60;99.90;;;;;;5016164;28;20048;-71
2022/10/16 08:40:33;;;;;;;0.55;0.25;;;13.60;99.90;;;;;;5022447;28;20029;-71
2022/10/16 08:43:16;;;;;;;2.22;0.30;;;13.70;99.90;;;;;;5015079;28;20053;-71
2022/10/16 08:46:03;;;;;;;0.65;0.32;;;13.70;99.90;;;;;;5011835;28;20073;-71
2022/10/16 08:48:51;;;;;;;1.63;0.50;;;13.70;99.90;;;;;;5018964;28;20056;-71
2022/10/16 08:51:25;;;;;;;1.05;0.43;;;13.80;99.90;;;;;;5022343;28;20505;-71
2022/10/16 08:53:56;;;;;;;0.73;0.32;;;13.80;99.90;;;;;;5021212;28;20061;-71
2022/10/16 08:56:22;;;;;;;1.73;0.28;;;13.90;99.90;;;;;;5021509;28;20045;-71
2022/10/16 08:58:48;;;;;;;0.43;0.30;;;14.00;99.90;;;;;;5015484;28;20041;-71
2022/10/16 09:01:16;;;;;;;0.63;0.40;;;14.00;99.90;;;;;;5020316;28;20509;-71
2022/10/16 09:04:10;;;;;;;1.05;0.40;;;14.00;99.90;;;;;;5019166;28;20056;-71
2022/10/16 09:06:44;;;;;;;4.55;0.55;;;14.10;99.90;;;;;;5018376;28;20041;-71
2022/10/16 09:09:46;;;;;;;5.05;0.65;;;14.10;99.90;;;;;;5016090;28;20096;-71
2022/10/16 09:12:23;;;;;;;5.97;0.65;;;14.10;99.90;;;;;;5012404;28;20057;-71
2022/10/16 09:15:32;;;;;;;1.55;0.47;;;14.10;99.90;;;;;;5018532;28;20628;-70
2022/10/16 09:18:14;;;;;;;1.30;0.52;;;14.20;99.90;;;;;;4967545;28;20061;-71
2022/10/16 09:20:53;;;;;;;2.05;0.77;;;14.20;99.90;;;;;;5016531;28;20107;-71
2022/10/16 09:23:27;;;;;;;1.50;0.40;;;14.20;99.90;;;;;;5021533;28;20045;-71
2022/10/16 09:25:54;;;;;;;3.20;0.98;;;14.30;99.90;;;;;;5012009;28;20516;-71
2022/10/16 09:28:20;;;;;;;2.60;0.45;;;14.30;99.90;;;;;;5019370;28;20071;-71
2022/10/16 09:30:48;;;;;;;2.72;0.65;;;14.40;99.90;;;;;;5020907;28;20130;-71
2022/10/16 09:33:15;;;;;;;1.73;0.75;;;14.40;99.90;;;;;;5004756;28;20064;-71
2022/10/16 09:35:44;;;;;;;0.90;0.35;;;14.40;99.90;;;;;;5014176;28;20043;-71
2022/10/16 09:38:28;;;;;;;1.27;0.40;;;14.40;99.90;;;;;;5004948;28;20478;-71
2022/10/16 09:40:59;;;;;;;1.20;0.43;;;14.40;99.90;;;;;;4994974;28;20540;-71
2022/10/16 09:43:30;;;;;;;2.53;0.40;;;14.50;99.90;;;;;;5014002;28;20111;-71
2022/10/16 09:46:19;;;;;;;2.97;0.98;;;14.50;99.90;;;;;;5013368;28;20041;-71
2022/10/16 09:48:48;;;;;;;0.88;0.38;;;14.50;99.90;;;;;;4996741;28;20308;-71
2022/10/16 09:51:29;;;;;;;2.65;0.30;;;14.60;99.90;;;;;;4996517;28;20037;-71
2022/10/16 09:54:00;;;;;;;4.03;0.65;;;14.60;99.90;;;;;;5018118;28;20041;-71
2022/10/16 09:56:35;;;;;;;5.22;0.40;;;14.70;99.90;;;;;;4990107;28;20448;-71
2022/10/16 09:59:10;;;;;;;0.55;0.28;;;14.70;99.90;;;;;;5015425;28;20502;-71
2022/10/16 10:01:42;;;;;;;1.40;0.28;;;14.80;99.90;;;;;;5011747;28;20054;-71
2022/10/16 10:04:08;;;;;;;0.40;0.20;;;14.80;99.90;;;;;;5019991;28;20433;-71
2022/10/16 10:06:38;;;;;;;1.52;0.43;;;14.80;99.90;;;;;;5016812;28;20041;-71
2022/10/16 10:09:05;;;;;;;1.85;0.30;;;14.90;99.90;;;;;;5020822;28;20384;-71
2022/10/16 10:11:49;;;;;;;0.75;0.32;;;14.90;99.90;;;;;;5032866;28;20495;-71
2022/10/16 10:14:20;;;;;;;1.90;0.20;;;14.90;99.90;;;;;;5016765;28;20060;-71
2022/10/16 10:16:46;;;;;;;1.95;0.30;;;15.00;99.90;;;;;;5002380;28;20053;-72
2022/10/16 10:19:18;;;;;;;2.15;0.43;;;15.00;99.90;;;;;;5004917;28;20667;-71
2022/10/16 10:21:44;;;;;;;0.93;0.40;;;15.00;99.90;;;;;;5013492;28;20499;-71
2022/10/16 10:24:11;;;;;;;0.82;0.47;;;15.10;99.90;;;;;;5014975;28;20106;-71
2022/10/16 10:26:37;;;;;;;1.50;0.45;;;15.10;99.90;;;;;;5013592;28;20040;-71
2022/10/16 10:29:29;;;;;;;4.13;0.52;;;15.10;99.90;;;;;;5034723;28;20037;-72
2022/10/16 10:32:12;;;;;;;3.15;0.40;;;15.10;99.90;;;;;;5021221;28;20045;-71
2022/10/16 10:35:04;;;;;;;2.00;0.60;;;15.10;99.90;;;;;;5019114;28;20495;-71
2022/10/16 10:37:39;;;;;;;2.58;0.75;;;15.10;99.90;;;;;;5017169;28;20041;-71
2022/10/16 10:40:23;;;;;;;1.27;0.60;;;15.10;99.90;;;;;;5021372;28;20045;-71
2022/10/16 10:43:27;;;;;;;3.70;0.55;;;15.10;99.90;;;;;;5020014;28;20040;-71
2022/10/16 10:46:03;;;;;;;1.70;0.40;;;15.10;99.90;;;;;;5015608;28;20041;-71
2022/10/16 10:48:54;;;;;;;4.50;0.65;;;15.20;99.90;;;;;;5034053;28;20483;-71
2022/10/16 10:51:37;;;;;;;3.13;0.52;;;15.10;99.90;;;;;;5012291;28;20065;-71
2022/10/16 10:54:25;;;;;;;4.10;0.50;;;15.10;99.90;;;;;;5017018;28;20073;-72
2022/10/16 10:57:29;;;;;;;6.25;0.70;;;15.10;99.90;;;;;;5013556;28;20207;-71
2022/10/16 11:00:09;;;;;;;1.23;0.50;;;15.10;99.90;;;;;;5018699;28;20061;-71
2022/10/16 11:02:43;;;;;;;3.03;0.68;;;15.10;99.90;;;;;;5021288;28;20156;-71
2022/10/16 11:05:29;;;;;;;3.45;0.55;;;15.10;99.90;;;;;;5023357;28;20037;-71
2022/10/16 11:08:18;;;;;;;1.45;0.40;;;15.20;99.90;;;;;;5018624;28;20507;-71
2022/10/16 11:10:47;;;;;;;2.83;0.60;;;15.20;99.90;;;;;;5001799;28;20033;-71
2022/10/16 11:13:45;;;;;;;1.88;0.80;;;15.30;99.90;;;;;;5011036;28;20056;-71
2022/10/16 11:16:26;;;;;;;3.25;0.50;;;15.30;99.90;;;;;;5015499;28;20037;-71
2022/10/16 11:19:09;;;;;;;0.80;0.40;;;15.20;99.90;;;;;;5010087;28;20046;-71
2022/10/16 11:21:44;;;;;;;3.47;0.50;;;15.30;99.90;;;;;;5015037;28;20045;-71
2022/10/16 11:24:25;;;;;;;0.40;0.20;;;15.30;99.90;;;;;;5002970;28;20052;-71
2022/10/16 11:26:53;;;;;;;1.65;0.50;;;15.40;99.90;;;;;;5012496;28;20041;-71
2022/10/16 11:29:30;;;;;;;0.57;0.40;;;15.40;99.90;;;;;;5019311;28;20509;-71
2022/10/16 11:32:16;;;;;;;1.55;0.35;;;15.40;99.90;;;;;;4996565;28;20376;-71
2022/10/16 11:34:49;;;;;;;1.45;0.47;;;15.30;99.90;;;;;;4992829;28;20056;-71
2022/10/16 11:37:20;;;;;;;1.50;0.40;;;15.30;99.90;;;;;;5030733;28;20117;-71
2022/10/16 11:39:47;;;;;;;0.70;0.30;;;15.30;99.90;;;;;;5013283;28;20111;-77
2022/10/16 11:42:21;;;;;;;1.85;0.50;;;15.30;99.90;;;;;;5014557;28;20044;-71
2022/10/16 11:45:26;;;;;;;4.93;0.70;;;15.30;99.90;;;;;;5012230;28;20053;-71
2022/10/16 11:48:05;;;;;;;0.98;0.30;;;15.20;99.90;;;;;;5029120;28;20080;-71
2022/10/16 11:50:42;;;;;;;3.40;0.47;;;15.10;99.90;;;;;;5029325;28;20495;-71
2022/10/16 11:53:27;;;;;;;1.52;0.50;;;15.10;99.90;;;;;;5046045;28;20073;-71
2022/10/16 11:55:52;;;;;;;1.77;0.60;;;15.00;99.90;;;;;;5029328;28;20543;-71
2022/10/16 11:58:34;;;;;;;1.90;0.40;;;15.00;99.90;;;;;;5045105;28;20113;-71
2022/10/16 12:01:09;;;;;;;4.50;0.68;;;15.00;99.90;;;;;;5017689;28;20045;-71
2022/10/16 12:03:57;;;;;;;2.37;0.40;;;14.90;99.90;;;;;;5009241;28;20531;-71
2022/10/16 12:06:31;;;;;;;1.10;0.40;;;15.00;99.90;;;;;;5009080;28;20395;-71
2022/10/16 12:09:00;;;;;;;0.70;0.30;;;15.00;99.90;;;;;;4993339;28;20436;-71
2022/10/16 12:11:29;;;;;;;1.83;0.47;;;15.10;99.90;;;;;;5008384;28;20041;-71
2022/10/16 12:14:19;;;;;;;2.78;0.50;;;15.10;99.90;;;;;;5016049;28;20506;-71
2022/10/16 12:17:05;;;;;;;3.80;0.60;;;15.30;99.90;;;;;;5026689;28;20056;-71
2022/10/16 12:19:32;;;;;;;3.33;0.68;;;15.30;99.90;;;;;;5028762;28;20056;-71
2022/10/16 12:22:00;;;;;;;0.47;0.30;;;15.40;99.90;;;;;;5012155;28;20050;-71
2022/10/16 12:24:37;;;;;;;4.53;0.47;;;15.40;99.90;;;;;;5028866;28;20041;-71
2022/10/16 12:27:06;;;;;;;0.40;0.30;;;15.50;99.90;;;;;;5026936;28;20037;-71
2022/10/16 12:29:42;;;;;;;1.40;0.35;;;15.40;99.90;;;;;;5026820;28;20045;-71
2022/10/16 12:32:32;;;;;;;2.33;0.35;;;15.40;99.90;;;;;;4992487;28;20049;-71
2022/10/16 12:34:59;;;;;;;0.50;0.25;;;15.30;99.90;;;;;;5009992;28;20038;-71
2022/10/16 12:37:27;;;;;;;2.22;0.57;;;15.20;99.90;;;;;;5008551;28;20390;-71
2022/10/16 12:39:55;;;;;;;4.25;0.35;;;15.10;99.90;;;;;;5008908;28;20037;-71
2022/10/16 12:42:33;;;;;;;0.63;0.30;;;15.10;99.90;;;;;;5018446;28;20037;-71
2022/10/16 12:44:59;;;;;;;2.17;0.60;;;15.10;99.90;;;;;;5026122;28;20434;-71
2022/10/16 12:47:30;;;;;;;2.33;0.55;;;15.10;99.90;;;;;;5004516;28;20030;-71
2022/10/16 12:49:57;;;;;;;2.75;0.40;;;15.10;99.90;;;;;;5008460;28;20046;-71
2022/10/16 12:52:27;;;;;;;1.55;0.40;;;15.20;99.90;;;;;;5008473;28;20041;-71
2022/10/16 12:54:59;;;;;;;1.13;0.20;;;15.10;99.90;;;;;;5007419;28;20524;-71
2022/10/16 12:57:40;;;;;;;2.55;0.30;;;15.20;99.90;;;;;;5019470;28;20046;-71
2022/10/16 13:00:43;;;;;;;4.25;0.38;;;15.30;99.90;;;;;;5028096;28;20037;-71
2022/10/16 13:03:25;;;;;;;2.22;0.40;;;15.30;99.90;;;;;;5010832;28;20475;-71
2022/10/16 13:06:00;;;;;;;1.52;0.38;;;15.40;99.90;;;;;;5027257;28;20053;-71
2022/10/16 13:08:52;;;;;;;2.15;0.40;;;15.40;99.90;;;;;;5023186;28;20085;-71